createdAt,value
2019-04-06T00:00:06.768Z,3.10
2019-04-06T00:02:40.563Z,2.40
2019-04-06T00:05:09.823Z,2.97
2019-04-06T00:07:39.132Z,3.80
2019-04-06T00:10:08.395Z,2.73
2019-04-06T00:12:37.645Z,2.63
2019-04-06T00:15:07.643Z,2.40
2019-04-06T00:17:36.886Z,2.27
2019-04-06T00:20:09.156Z,2.50
2019-04-06T00:22:38.403Z,2.97
2019-04-06T00:25:07.712Z,2.33
2019-04-06T00:27:36.964Z,2.67
2019-04-06T00:30:08.417Z,2.10
2019-04-06T00:32:48.392Z,2.27
2019-04-06T00:35:17.700Z,2.83
2019-04-06T00:37:46.959Z,2.10
2019-04-06T00:40:16.197Z,2.40
2019-04-06T00:42:45.435Z,2.23
2019-04-06T00:45:14.759Z,2.57
2019-04-06T00:47:44.011Z,2.30
2019-04-06T00:50:13.263Z,1.87
2019-04-06T00:52:42.520Z,2.20
2019-04-06T00:55:11.773Z,2.10
2019-04-06T00:57:41.011Z,2.00
2019-04-06T01:00:10.256Z,1.87
2019-04-06T01:02:39.588Z,2.20
2019-04-06T01:05:08.816Z,2.43
2019-04-06T01:07:38.191Z,2.17
2019-04-06T01:10:07.396Z,2.00
2019-04-06T01:12:36.651Z,1.90
2019-04-06T01:15:06.267Z,1.83
2019-04-06T01:17:35.512Z,2.03
2019-04-06T01:20:05.433Z,1.93
2019-04-06T01:22:34.822Z,2.60
2019-04-06T01:25:06.510Z,2.07
2019-04-06T01:27:35.930Z,3.13
2019-04-06T01:30:07.299Z,2.23
2019-04-06T01:32:36.621Z,1.67
2019-04-06T01:35:05.868Z,2.43
2019-04-06T01:37:35.239Z,1.70
2019-04-06T01:40:06.470Z,2.13
2019-04-06T01:42:35.734Z,1.80
2019-04-06T01:45:06.208Z,1.80
2019-04-06T01:47:36.146Z,1.70
2019-04-06T01:50:05.948Z,1.63
2019-04-06T01:52:35.207Z,1.87
2019-04-06T01:55:05.788Z,1.40
2019-04-06T01:57:35.023Z,1.60
2019-04-06T02:00:07.880Z,2.10
2019-04-06T02:02:38.831Z,1.90
2019-04-06T02:05:08.455Z,1.70
2019-04-06T02:07:37.628Z,1.83
2019-04-06T02:10:07.608Z,1.60
2019-04-06T02:12:36.866Z,2.03
2019-04-06T02:15:06.283Z,1.43
2019-04-06T02:17:35.540Z,1.50
2019-04-06T02:20:05.512Z,1.70
2019-04-06T02:22:34.765Z,2.30
2019-04-06T02:25:05.347Z,1.40
2019-04-06T02:27:34.595Z,2.30
2019-04-06T02:30:22.699Z,1.63
2019-04-06T02:32:59.328Z,1.43
2019-04-06T02:35:33.152Z,1.60
2019-04-06T02:38:19.167Z,1.30
2019-04-06T02:40:55.956Z,2.30
2019-04-06T02:43:26.848Z,1.50
2019-04-06T02:45:56.394Z,2.00
2019-04-06T02:48:25.632Z,2.00
2019-04-06T02:50:55.392Z,1.40
2019-04-06T02:53:24.731Z,1.50
2019-04-06T02:55:53.989Z,1.20
2019-04-06T02:58:24.754Z,1.20
2019-04-06T03:00:54.411Z,1.37
2019-04-06T03:03:23.640Z,1.37
2019-04-06T03:05:52.888Z,1.47
2019-04-06T03:08:22.327Z,1.20
2019-04-06T03:10:51.544Z,1.10
2019-04-06T03:13:20.793Z,1.27
2019-04-06T03:15:50.048Z,1.97
2019-04-06T03:18:19.284Z,1.30
2019-04-06T03:20:48.545Z,1.27
2019-04-06T03:23:17.804Z,1.40
2019-04-06T03:25:47.081Z,1.20
2019-04-06T03:28:16.440Z,1.00
2019-04-06T03:30:45.817Z,1.20
2019-04-06T03:33:15.515Z,1.20
2019-04-06T03:35:48.144Z,0.90
2019-04-06T03:38:15.977Z,1.13
2019-04-06T03:40:45.240Z,2.07
2019-04-06T03:43:14.500Z,1.33
2019-04-06T03:45:43.947Z,0.97
2019-04-06T03:48:13.244Z,1.07
2019-04-06T03:50:42.497Z,1.13
2019-04-06T03:53:11.774Z,1.00
2019-04-06T03:55:41.011Z,1.73
2019-04-06T03:58:11.526Z,1.30
2019-04-06T04:00:40.781Z,1.27
2019-04-06T04:03:10.020Z,1.10
2019-04-06T04:05:39.573Z,1.20
2019-04-06T04:08:08.923Z,1.33
2019-04-06T04:10:38.508Z,1.03
2019-04-06T04:13:07.836Z,1.00
2019-04-06T04:15:37.093Z,1.20
2019-04-06T04:18:07.425Z,0.90
2019-04-06T04:20:36.671Z,0.80
2019-04-06T04:23:05.906Z,1.10
2019-04-06T04:25:35.139Z,1.00
2019-04-06T04:28:04.740Z,1.07
2019-04-06T04:30:35.010Z,1.10
2019-04-06T04:33:04.487Z,1.00
2019-04-06T04:35:33.755Z,1.37
2019-04-06T04:38:02.995Z,1.53
2019-04-06T04:40:32.230Z,1.67
2019-04-06T04:43:01.530Z,0.83
2019-04-06T04:45:30.842Z,0.90
2019-04-06T04:48:00.431Z,1.07
2019-04-06T04:50:29.685Z,1.43
2019-04-06T04:52:59.005Z,1.50
2019-04-06T04:55:28.264Z,0.90
2019-04-06T04:57:57.511Z,0.80
2019-04-06T05:00:26.763Z,0.70
2019-04-06T05:02:56.003Z,0.80
2019-04-06T05:05:25.262Z,1.10
2019-04-06T05:07:54.511Z,0.70
2019-04-06T05:10:23.747Z,0.83
2019-04-06T05:12:53.124Z,1.33
2019-04-06T05:15:31.551Z,0.80
2019-04-06T05:18:00.807Z,0.80
2019-04-06T05:20:30.149Z,1.27
2019-04-06T05:22:59.507Z,0.70
2019-04-06T05:25:28.768Z,1.70
2019-04-06T05:27:58.123Z,1.23
2019-04-06T05:30:27.378Z,0.77
2019-04-06T05:32:56.630Z,1.10
2019-04-06T05:35:26.078Z,1.00
2019-04-06T05:37:55.427Z,0.80
2019-04-06T05:40:24.668Z,1.00
2019-04-06T05:42:53.904Z,0.87
2019-04-06T05:45:23.476Z,0.70
2019-04-06T05:47:52.750Z,0.90
2019-04-06T05:50:21.927Z,0.70
2019-04-06T05:52:51.679Z,1.80
2019-04-06T05:55:20.868Z,1.03
2019-04-06T05:57:50.112Z,0.70
2019-04-06T06:00:19.370Z,1.00
2019-04-06T06:02:49.693Z,0.70
2019-04-06T06:05:18.927Z,0.80
2019-04-06T06:07:48.707Z,1.40
2019-04-06T06:10:17.964Z,0.87
2019-04-06T06:12:47.231Z,1.30
2019-04-06T06:15:16.501Z,0.80
2019-04-06T06:17:45.736Z,1.20
2019-04-06T06:20:15.016Z,1.10
2019-04-06T06:22:44.269Z,1.10
2019-04-06T06:25:13.512Z,0.97
2019-04-06T06:27:42.759Z,1.10
2019-04-06T06:30:13.502Z,1.80
2019-04-06T06:32:42.823Z,1.20
2019-04-06T06:35:12.052Z,1.13
2019-04-06T06:37:41.312Z,1.33
2019-04-06T06:40:10.545Z,1.20
2019-04-06T06:42:39.796Z,1.17
2019-04-06T06:45:09.035Z,1.20
2019-04-06T06:47:38.300Z,1.20
2019-04-06T06:50:07.771Z,1.57
2019-04-06T06:52:37.177Z,1.27
2019-04-06T06:55:07.287Z,1.50
2019-04-06T06:57:36.581Z,1.20
2019-04-06T07:00:06.660Z,1.43
2019-04-06T07:02:35.912Z,1.13
2019-04-06T07:05:06.397Z,1.83
2019-04-06T07:07:35.664Z,1.90
2019-04-06T07:10:07.039Z,2.30
2019-04-06T07:12:36.286Z,1.40
2019-04-06T07:15:07.112Z,1.40
2019-04-06T07:17:36.348Z,1.73
2019-04-06T07:20:07.066Z,1.70
2019-04-06T07:22:36.706Z,1.23
2019-04-06T07:25:05.977Z,2.63
2019-04-06T07:27:36.303Z,1.83
2019-04-06T07:30:08.252Z,1.80
2019-04-06T07:32:37.504Z,1.53
2019-04-06T07:35:07.023Z,2.00
2019-04-06T07:37:36.201Z,2.20
2019-04-06T07:40:08.835Z,1.47
2019-04-06T07:42:38.171Z,1.50
2019-04-06T07:45:07.876Z,1.93
2019-04-06T07:47:37.309Z,1.77
2019-04-06T07:50:07.421Z,2.60
2019-04-06T07:52:36.675Z,1.70
2019-04-06T07:55:08.954Z,1.60
2019-04-06T07:57:39.276Z,1.80
2019-04-06T08:00:08.536Z,1.80
2019-04-06T08:02:37.784Z,1.97
2019-04-06T08:05:07.047Z,2.63
2019-04-06T08:07:36.554Z,1.80
2019-04-06T08:10:06.008Z,1.67
2019-04-06T08:12:35.657Z,1.80
2019-04-06T08:15:07.876Z,2.00
2019-04-06T08:17:37.257Z,2.30
2019-04-06T08:20:07.641Z,1.90
2019-04-06T08:22:37.004Z,2.23
2019-04-06T08:25:06.971Z,1.87
2019-04-06T08:27:36.225Z,2.20
2019-04-06T08:30:08.475Z,2.10
2019-04-06T08:32:37.772Z,1.87
2019-04-06T08:35:07.692Z,1.63
2019-04-06T08:37:36.924Z,2.03
2019-04-06T08:40:06.948Z,2.20
2019-04-06T08:42:36.199Z,2.00
2019-04-06T08:45:06.391Z,2.07
2019-04-06T08:47:35.631Z,2.17
2019-04-06T08:50:07.842Z,1.90
2019-04-06T08:52:37.943Z,2.40
2019-04-06T08:55:07.195Z,2.00
2019-04-06T08:57:37.951Z,2.07
2019-04-06T09:00:07.800Z,2.10
2019-04-06T09:02:37.449Z,2.73
2019-04-06T09:05:06.977Z,2.60
2019-04-06T09:07:37.499Z,2.73
2019-04-06T09:10:07.481Z,1.90
2019-04-06T09:12:37.039Z,2.73
2019-04-06T09:15:08.457Z,2.10
2019-04-06T09:17:37.724Z,2.47
2019-04-06T09:20:08.412Z,2.30
2019-04-06T09:22:37.663Z,2.37
2019-04-06T09:25:06.903Z,2.03
2019-04-06T09:27:36.161Z,3.87
2019-04-06T09:30:06.067Z,1.93
2019-04-06T09:32:35.617Z,3.17
2019-04-06T09:35:05.609Z,2.30
2019-04-06T09:37:34.849Z,2.10
2019-04-06T09:40:06.143Z,2.97
2019-04-06T09:42:35.400Z,2.13
2019-04-06T09:45:24.439Z,3.37
2019-04-06T09:48:08.548Z,2.50
2019-04-06T09:50:39.508Z,2.17
2019-04-06T09:53:13.456Z,1.90
2019-04-06T09:55:53.476Z,2.13
2019-04-06T09:58:27.728Z,2.43
2019-04-06T10:01:01.613Z,2.30
2019-04-06T10:03:35.537Z,2.40
2019-04-06T10:06:21.439Z,2.77
2019-04-06T10:08:57.935Z,2.20
2019-04-06T10:11:28.880Z,1.93
2019-04-06T10:14:02.899Z,3.07
2019-04-06T10:16:34.027Z,2.77
2019-04-06T10:19:13.628Z,2.00
2019-04-06T10:22:02.278Z,2.33
2019-04-06T10:24:33.159Z,2.20
2019-04-06T10:27:16.420Z,2.00
2019-04-06T10:29:49.620Z,2.00
2019-04-06T10:32:28.692Z,3.37
2019-04-06T10:35:14.544Z,2.20
2019-04-06T10:38:03.775Z,2.67
2019-04-06T10:40:34.597Z,1.87
2019-04-06T10:43:22.063Z,2.20
2019-04-06T10:45:58.671Z,2.43
2019-04-06T10:48:44.270Z,2.97
2019-04-06T10:51:15.160Z,2.10
2019-04-06T10:54:02.580Z,2.10
2019-04-06T10:56:36.487Z,1.97
2019-04-06T10:59:24.105Z,1.97
2019-04-06T11:01:55.295Z,2.60
2019-04-06T11:04:26.309Z,2.33
2019-04-06T11:07:02.960Z,2.13
2019-04-06T11:09:33.859Z,2.50
2019-04-06T11:12:11.191Z,2.73
2019-04-06T11:14:42.257Z,2.23
2019-04-06T11:17:29.815Z,2.00
2019-04-06T11:20:03.428Z,1.93
2019-04-06T11:22:37.034Z,2.23
2019-04-06T11:25:18.040Z,2.10
2019-04-06T11:28:06.940Z,2.20
2019-04-06T11:30:46.705Z,2.10
2019-04-06T11:33:26.763Z,2.47
2019-04-06T11:36:03.647Z,2.17
2019-04-06T11:38:37.497Z,1.90
2019-04-06T11:41:11.093Z,1.67
2019-04-06T11:43:41.968Z,2.30
2019-04-06T11:46:22.049Z,2.23
2019-04-06T11:48:53.135Z,2.00
2019-04-06T11:51:36.310Z,2.03
2019-04-06T11:54:23.938Z,3.07
2019-04-06T11:57:07.254Z,2.33
2019-04-06T11:59:43.892Z,2.33
2019-04-06T12:02:17.741Z,2.50
2019-04-06T12:04:49.983Z,2.47
2019-04-06T12:07:39.016Z,1.80
2019-04-06T12:10:12.972Z,1.60
2019-04-06T12:12:43.867Z,1.70
2019-04-06T12:15:17.297Z,2.07
2019-04-06T12:17:53.946Z,2.00
2019-04-06T12:20:27.647Z,1.60
2019-04-06T12:22:58.717Z,1.87
2019-04-06T12:25:41.601Z,1.60
2019-04-06T12:28:28.779Z,2.20
2019-04-06T12:31:05.807Z,2.07
2019-04-06T12:33:44.222Z,1.93
2019-04-06T12:36:20.895Z,2.00
2019-04-06T12:38:51.795Z,2.07
2019-04-06T12:41:28.851Z,2.10
2019-04-06T12:44:05.867Z,2.13
2019-04-06T12:46:53.352Z,2.03
2019-04-06T12:49:29.978Z,2.83
2019-04-06T12:52:06.680Z,2.60
2019-04-06T12:54:37.585Z,1.87
2019-04-06T12:57:11.139Z,1.60
2019-04-06T12:59:58.472Z,1.70
2019-04-06T13:02:29.356Z,2.73
2019-04-06T13:05:18.493Z,1.87
2019-04-06T13:07:49.387Z,1.90
2019-04-06T13:10:38.748Z,1.90
2019-04-06T13:13:18.841Z,1.70
2019-04-06T13:15:59.784Z,1.97
2019-04-06T13:18:31.020Z,2.20
2019-04-06T13:21:04.669Z,1.60
2019-04-06T13:23:41.925Z,2.37
2019-04-06T13:26:12.973Z,2.07
2019-04-06T13:29:02.321Z,1.73
2019-04-06T13:31:33.647Z,1.90
2019-04-06T13:34:10.297Z,2.17
2019-04-06T13:36:41.532Z,1.70
2019-04-06T13:39:12.687Z,2.90
2019-04-06T13:41:59.956Z,1.63
2019-04-06T13:44:47.198Z,2.47
2019-04-06T13:47:27.058Z,2.30
2019-04-06T13:49:57.907Z,1.80
2019-04-06T13:52:40.496Z,1.80
2019-04-06T13:55:17.483Z,2.07
2019-04-06T13:57:48.444Z,1.97
2019-04-06T14:00:28.252Z,1.57
2019-04-06T14:03:15.611Z,1.80
2019-04-06T14:05:46.699Z,1.90
2019-04-06T14:08:17.514Z,1.83
2019-04-06T14:10:54.312Z,1.80
2019-04-06T14:13:33.963Z,1.93
2019-04-06T14:16:21.172Z,2.50
2019-04-06T14:18:52.069Z,1.90
2019-04-06T14:21:23.099Z,1.90
2019-04-06T14:24:03.006Z,2.13
2019-04-06T14:26:50.626Z,2.10
2019-04-06T14:29:24.380Z,2.10
2019-04-06T14:31:58.393Z,1.90
2019-04-06T14:34:29.362Z,2.13
2019-04-06T14:37:03.148Z,2.47
2019-04-06T14:39:43.155Z,2.30
2019-04-06T14:42:23.259Z,2.90
2019-04-06T14:44:56.908Z,2.57
2019-04-06T14:47:28.173Z,2.70
2019-04-06T14:50:15.531Z,2.53
2019-04-06T14:52:58.375Z,2.27
2019-04-06T14:55:31.836Z,2.87
2019-04-06T14:58:05.252Z,3.13
2019-04-06T15:00:36.241Z,2.70
2019-04-06T15:03:23.407Z,3.60
2019-04-06T15:06:03.092Z,3.20
2019-04-06T15:08:33.993Z,2.77
2019-04-06T15:11:07.613Z,3.10
2019-04-06T15:13:41.032Z,3.20
2019-04-06T15:16:12.211Z,3.23
2019-04-06T15:18:43.112Z,2.73
2019-04-06T15:21:20.033Z,3.20
2019-04-06T15:23:57.013Z,3.50
2019-04-06T15:26:27.864Z,3.57
2019-04-06T15:29:15.098Z,2.20
2019-04-06T15:31:52.547Z,3.30
2019-04-06T15:34:32.689Z,2.80
2019-04-06T15:37:09.624Z,2.57
2019-04-06T15:39:40.847Z,2.50
2019-04-06T15:42:26.656Z,3.07
2019-04-06T15:45:09.795Z,2.70
2019-04-06T15:47:40.967Z,3.13
2019-04-06T15:50:12.061Z,3.07
2019-04-06T15:52:56.229Z,3.00
2019-04-06T15:55:39.819Z,2.77
2019-04-06T15:58:11.006Z,3.43
2019-04-06T16:00:50.908Z,3.50
2019-04-06T16:03:30.965Z,2.80
2019-04-06T16:06:01.849Z,2.83
2019-04-06T16:08:41.820Z,3.00
2019-04-06T16:11:27.926Z,2.37
2019-04-06T16:14:11.250Z,2.90
2019-04-06T16:16:59.495Z,2.50
2019-04-06T16:19:46.412Z,3.23
2019-04-06T16:22:29.071Z,3.00
2019-04-06T16:25:02.688Z,2.90
2019-04-06T16:27:45.668Z,3.63
2019-04-06T16:30:16.556Z,3.50
2019-04-06T16:32:47.459Z,2.90
2019-04-06T16:35:27.007Z,3.83
2019-04-06T16:38:00.684Z,2.60
2019-04-06T16:40:37.472Z,3.17
2019-04-06T16:43:23.176Z,3.33
2019-04-06T16:45:56.940Z,2.47
2019-04-06T16:48:27.816Z,2.50
2019-04-06T16:50:58.767Z,2.90
2019-04-06T16:53:29.583Z,3.00
2019-04-06T16:56:12.685Z,2.57
2019-04-06T16:58:46.795Z,3.20
2019-04-06T17:01:24.168Z,2.90
2019-04-06T17:03:57.902Z,3.53
2019-04-06T17:06:37.864Z,2.77
2019-04-06T17:09:12.265Z,3.03
2019-04-06T17:11:46.132Z,2.87
2019-04-06T17:14:17.020Z,2.57
2019-04-06T17:16:47.915Z,3.87
2019-04-06T17:19:24.552Z,3.73
2019-04-06T17:21:58.153Z,2.23
2019-04-06T17:24:29.197Z,2.87
2019-04-06T17:27:02.981Z,3.23
2019-04-06T17:29:51.840Z,3.50
2019-04-06T17:32:33.937Z,2.93
2019-04-06T17:35:13.716Z,3.17
2019-04-06T17:37:48.513Z,3.80
2019-04-06T17:40:19.401Z,3.13
2019-04-06T17:42:50.280Z,3.97
2019-04-06T17:45:26.917Z,3.83
2019-04-06T17:48:07.099Z,3.13
2019-04-06T17:50:50.224Z,3.40
2019-04-06T17:53:36.120Z,2.90
2019-04-06T17:56:12.562Z,4.03
2019-04-06T17:58:43.435Z,2.93
2019-04-06T18:01:14.316Z,3.93
2019-04-06T18:03:51.131Z,2.83
2019-04-06T18:06:24.647Z,3.27
2019-04-06T18:09:10.308Z,2.90
2019-04-06T18:11:50.151Z,3.57
2019-04-06T18:14:19.965Z,3.23
2019-04-06T18:16:49.243Z,3.53
2019-04-06T18:19:18.512Z,3.03
2019-04-06T18:21:48.135Z,2.70
2019-04-06T18:24:17.337Z,3.97
2019-04-06T18:26:46.585Z,3.37
2019-04-06T18:29:16.199Z,3.40
2019-04-06T18:31:50.198Z,3.10
2019-04-06T18:34:19.587Z,3.30
2019-04-06T18:36:53.508Z,4.20
2019-04-06T18:39:24.404Z,3.27
2019-04-06T18:41:53.713Z,2.60
2019-04-06T18:44:23.199Z,3.83
2019-04-06T18:46:52.897Z,2.93
2019-04-06T18:49:22.641Z,3.37
2019-04-06T18:51:52.418Z,6.70
2019-04-06T18:54:22.188Z,7.87
2019-04-06T18:56:51.571Z,2.97
2019-04-06T18:59:20.823Z,3.20
2019-04-06T19:01:50.071Z,3.10
2019-04-06T19:04:19.247Z,3.20
2019-04-06T19:06:48.772Z,3.43
2019-04-06T19:09:23.465Z,3.13
2019-04-06T19:11:55.496Z,2.87
2019-04-06T19:14:20.306Z,4.07
2019-04-06T19:16:50.173Z,3.63
2019-04-06T19:19:20.661Z,3.37
2019-04-06T19:21:49.905Z,3.23
2019-04-06T19:24:19.207Z,3.73
2019-04-06T19:26:48.881Z,3.57
2019-04-06T19:29:18.301Z,4.10
2019-04-06T19:31:47.893Z,3.80
2019-04-06T19:34:17.260Z,3.60
2019-04-06T19:36:46.503Z,3.37
2019-04-06T19:39:16.135Z,4.03
2019-04-06T19:41:45.484Z,3.93
2019-04-06T19:44:14.811Z,3.67
2019-04-06T19:46:44.374Z,3.00
2019-04-06T19:49:14.202Z,3.20
2019-04-06T19:51:44.167Z,3.63
2019-04-06T19:54:13.519Z,4.30
2019-04-06T19:56:42.949Z,3.47
2019-04-06T19:59:13.549Z,3.03
2019-04-06T20:01:43.272Z,3.93
2019-04-06T20:04:12.524Z,3.90
2019-04-06T20:06:42.108Z,3.83
2019-04-06T20:09:11.731Z,3.87
2019-04-06T20:11:41.260Z,3.60
2019-04-06T20:14:10.728Z,2.90
2019-04-06T20:16:40.148Z,3.87
2019-04-06T20:19:09.897Z,4.03
2019-04-06T20:21:39.723Z,3.20
2019-04-06T20:24:09.556Z,4.50
2019-04-06T20:26:40.025Z,3.20
2019-04-06T20:29:09.543Z,4.03
2019-04-06T20:31:38.792Z,3.60
2019-04-06T20:34:08.523Z,3.97
2019-04-06T20:36:38.095Z,5.17
2019-04-06T20:39:08.978Z,4.13
2019-04-06T20:41:39.503Z,5.27
2019-04-06T20:44:09.181Z,4.60
2019-04-06T20:46:38.675Z,4.93
2019-04-06T20:49:09.199Z,4.83
2019-04-06T20:51:38.983Z,4.23
2019-04-06T20:54:09.053Z,5.00
2019-04-06T20:56:38.611Z,3.73
2019-04-06T20:59:07.864Z,5.30
2019-04-06T21:01:37.156Z,5.53
2019-04-06T21:04:06.807Z,4.70
2019-04-06T21:06:36.122Z,4.77
2019-04-06T21:09:08.042Z,4.07
2019-04-06T21:11:37.295Z,4.07
2019-04-06T21:14:07.924Z,4.87
2019-04-06T21:16:37.831Z,4.13
2019-04-06T21:19:07.207Z,4.90
2019-04-06T21:21:36.756Z,4.57
2019-04-06T21:24:06.120Z,3.90
2019-04-06T21:26:35.443Z,5.30
2019-04-06T21:29:04.859Z,4.20
2019-04-06T21:31:34.238Z,4.23
2019-04-06T21:34:10.497Z,5.77
2019-04-06T21:36:34.423Z,6.07
2019-04-06T21:39:06.289Z,4.73
2019-04-06T21:41:35.868Z,6.63
2019-04-06T21:44:05.136Z,3.83
2019-04-06T21:46:34.387Z,4.23
2019-04-06T21:49:03.655Z,4.43
2019-04-06T21:51:32.915Z,4.10
2019-04-06T21:54:02.160Z,5.50
2019-04-06T21:56:31.897Z,5.80
2019-04-06T21:59:01.621Z,4.83
2019-04-06T22:01:31.696Z,4.30
2019-04-06T22:04:01.723Z,4.93
2019-04-06T22:06:32.107Z,4.73
2019-04-06T22:09:01.569Z,4.30
2019-04-06T22:11:33.187Z,4.90
2019-04-06T22:14:03.286Z,4.37
2019-04-06T22:16:33.630Z,4.17
2019-04-06T22:19:03.215Z,4.50
2019-04-06T22:21:32.377Z,4.80
2019-04-06T22:24:01.633Z,4.60
2019-04-06T22:26:30.872Z,4.67
2019-04-06T22:29:00.172Z,4.40
2019-04-06T22:31:30.524Z,5.00
2019-04-06T22:34:00.420Z,4.20
2019-04-06T22:36:29.878Z,4.07
2019-04-06T22:38:59.429Z,4.80
2019-04-06T22:41:29.065Z,4.60
2019-04-06T22:43:58.315Z,4.30
2019-04-06T22:46:27.561Z,4.53
2019-04-06T22:48:57.420Z,4.07
2019-04-06T22:51:27.328Z,4.07
2019-04-06T22:53:56.916Z,4.00
2019-04-06T22:56:26.167Z,4.20
2019-04-06T22:58:55.809Z,4.90
2019-04-06T23:01:26.718Z,4.63
2019-04-06T23:04:03.949Z,3.97
2019-04-06T23:06:40.776Z,4.23
2019-04-06T23:09:10.126Z,5.20
2019-04-06T23:11:39.871Z,4.60
2019-04-06T23:14:10.044Z,4.40
2019-04-06T23:16:39.713Z,4.13
2019-04-06T23:19:09.681Z,3.83
2019-04-06T23:21:39.675Z,4.27
2019-04-06T23:24:09.061Z,3.83
2019-04-06T23:26:39.811Z,3.63
2019-04-06T23:29:09.156Z,4.37
2019-04-06T23:31:38.411Z,4.90
2019-04-06T23:34:07.932Z,4.30
2019-04-06T23:36:37.404Z,4.37
2019-04-06T23:39:08.055Z,4.73
2019-04-06T23:41:37.821Z,5.07
2019-04-06T23:44:07.092Z,4.40
2019-04-06T23:46:36.346Z,4.03
2019-04-06T23:49:05.554Z,3.47
2019-04-06T23:51:34.892Z,4.23
2019-04-06T23:54:04.334Z,3.80
2019-04-06T23:56:33.567Z,3.87
2019-04-06T23:59:03.335Z,5.17
